Time;durP1;ratioP1;P1;durP2;ratioP2;P2;SDS_P1;SDS_P2;PMS_P1;PMS_P2;Temp;Humidity;BMP_temperature;BMP_pressure;BME280_temperature;BME280_humidity;BME280_pressure;Samples;Min_cycle;Max_cycle;Signal;HPM_P1;HPM_P2
2023/01/05 00:01:39;;;;;;;1.57;0.57;;;12.00;99.90;11.90;99909.00;;;;4910566;28;122298;-65
2023/01/05 00:04:06;;;;;;;2.83;0.70;;;12.00;99.90;11.70;99884.00;;;;4911175;28;93161;-64
2023/01/05 00:06:32;;;;;;;0.80;0.33;;;11.80;99.90;11.50;99896.00;;;;4891562;28;93012;-65
2023/01/05 00:08:59;;;;;;;0.57;0.53;;;11.70;99.90;11.40;99898.00;;;;4908068;28;93297;-64
2023/01/05 00:22:33;;;;;;;3.90;0.63;;;10.90;99.90;10.50;99905.00;;;;4903176;28;94141;-66
2023/01/05 00:25:11;;;;;;;2.00;0.63;;;10.70;99.90;10.40;99914.00;;;;4909283;28;92759;-68
2023/01/05 00:27:38;;;;;;;1.87;0.60;;;10.60;99.90;10.30;99911.00;;;;4908242;28;100390;-66
2023/01/05 00:30:05;;;;;;;2.13;0.50;;;10.50;99.90;10.30;99917.00;;;;4907989;28;94242;-68
2023/01/05 00:32:31;;;;;;;1.40;0.80;;;10.40;99.90;10.20;99918.00;;;;4892404;28;92663;-67
2023/01/05 00:34:58;;;;;;;3.27;1.00;;;10.30;99.90;10.20;99928.00;;;;4894059;28;98073;-68
2023/01/05 00:37:27;;;;;;;0.80;0.67;;;10.30;99.90;10.20;99931.00;;;;4908068;28;93171;-68
2023/01/05 00:39:53;;;;;;;6.47;0.53;;;10.90;99.90;10.20;99946.00;;;;4887951;28;93097;-69
2023/01/05 00:42:19;;;;;;;5.43;1.00;;;10.30;99.90;10.20;99939.00;;;;4907468;28;104661;-68
2023/01/05 00:44:45;;;;;;;3.33;0.83;;;10.20;99.90;10.10;99936.00;;;;4888063;28;109391;-69
2023/01/05 00:47:11;;;;;;;1.70;0.87;;;10.20;99.90;10.10;99937.00;;;;4886240;28;93962;-67
2023/01/05 00:49:36;;;;;;;4.73;0.63;;;10.20;99.90;10.20;99924.00;;;;4891135;28;123194;-69
2023/01/05 00:52:03;;;;;;;0.80;0.43;;;10.30;99.90;10.30;99923.00;;;;4887840;28;122788;-67
2023/01/05 00:54:28;;;;;;;3.37;0.63;;;10.30;99.90;10.30;99930.00;;;;4885177;28;93725;-65
2023/01/05 00:56:54;;;;;;;1.13;0.83;;;10.40;99.90;10.40;99916.00;;;;4886636;28;107684;-69
2023/01/05 00:59:19;;;;;;;1.90;1.00;;;10.50;99.90;10.50;99922.00;;;;4885804;28;123428;-68
2023/01/05 01:01:47;;;;;;;2.87;0.53;;;10.50;99.90;10.60;99914.00;;;;4885760;28;122138;-66
2023/01/05 01:04:13;;;;;;;4.03;0.93;;;10.60;99.90;10.70;99924.00;;;;4890021;28;93107;-68
2023/01/05 01:06:39;;;;;;;2.13;0.67;;;10.70;99.90;10.70;99909.00;;;;4890007;28;93109;-69
2023/01/05 01:09:05;;;;;;;3.47;0.90;;;10.80;99.90;10.70;99908.00;;;;4890134;28;121208;-68
2023/01/05 01:11:31;;;;;;;6.40;1.07;;;10.80;99.90;10.70;99908.00;;;;4889834;28;97113;-68
2023/01/05 01:13:56;;;;;;;4.83;1.10;;;10.80;99.90;10.70;99915.00;;;;4892582;28;92913;-66
2023/01/05 01:16:22;;;;;;;5.63;0.90;;;10.80;99.90;10.60;99915.00;;;;4890976;28;107351;-68
2023/01/05 01:18:48;;;;;;;1.33;0.90;;;10.70;99.90;10.50;99928.00;;;;4886862;28;93745;-67
2023/01/05 01:21:14;;;;;;;1.50;0.80;;;10.60;99.90;10.40;99909.00;;;;4886082;28;122709;-68
2023/01/05 01:23:40;;;;;;;1.17;0.53;;;10.60;99.90;10.30;99912.00;;;;4887938;28;111117;-68
2023/01/05 01:26:12;;;;;;;6.23;0.60;;;10.40;99.90;10.20;99921.00;;;;4886710;28;97228;-67
2023/01/05 01:28:38;;;;;;;9.07;1.07;;;10.40;99.90;10.20;99914.00;;;;4887407;28;97126;-66
2023/01/05 01:31:05;;;;;;;1.57;0.70;;;10.30;99.90;10.20;99921.00;;;;4888618;28;111051;-67
2023/01/05 01:33:32;;;;;;;0.93;0.70;;;10.30;99.90;10.20;99894.00;;;;4885225;28;92882;-68
2023/01/05 01:36:03;;;;;;;3.33;0.80;;;10.30;99.90;10.30;99908.00;;;;4887612;28;94019;-66
2023/01/05 01:38:29;;;;;;;3.40;1.27;;;10.30;99.90;10.30;99900.00;;;;4885447;28;107791;-66
2023/01/05 01:40:55;;;;;;;3.70;0.60;;;10.40;99.90;10.40;99912.00;;;;4885920;28;123386;-67
2023/01/05 01:43:46;;;;;;;10.03;0.57;;;10.50;99.90;10.50;99918.00;;;;4887093;28;108759;-67
2023/01/05 01:46:13;;;;;;;1.70;0.73;;;10.60;99.90;10.70;99919.00;;;;4910738;28;93006;-66
2023/01/05 01:49:02;;;;;;;2.13;0.63;;;10.70;99.90;10.80;99913.00;;;;4903682;28;94905;-67
2023/01/05 01:51:44;;;;;;;0.97;0.40;;;10.80;99.90;10.90;99914.00;;;;4904167;28;113523;-67
2023/01/05 01:54:15;;;;;;;2.37;1.10;;;11.00;99.90;11.00;99903.00;;;;4883722;28;92318;-68
2023/01/05 01:56:47;;;;;;;4.90;1.00;;;11.00;99.90;11.10;99884.00;;;;4892121;28;92959;-67
2023/01/05 01:59:14;;;;;;;1.73;0.60;;;11.10;99.90;11.10;99900.00;;;;4890381;28;114543;-67
2023/01/05 02:01:40;;;;;;;1.13;0.50;;;11.20;99.90;11.20;99900.00;;;;4904743;28;123497;-68
2023/01/05 02:04:06;;;;;;;4.43;0.60;;;11.20;99.90;11.20;99907.00;;;;4904995;28;108773;-68
2023/01/05 02:06:32;;;;;;;2.73;0.83;;;11.20;99.90;11.20;99888.00;;;;4906611;28;92992;-69
2023/01/05 02:08:58;;;;;;;1.93;0.90;;;11.20;99.90;11.10;99884.00;;;;4906753;28;123097;-70
2023/01/05 02:11:56;;;;;;;0.20;0.20;;;11.20;99.90;11.20;99887.00;;;;4874310;28;122803;-73
2023/01/05 02:15:02;;;;;;;2.70;1.00;;;11.30;99.90;11.20;99879.00;;;;4889840;28;92926;-71
2023/01/05 02:17:48;;;;;;;1.13;0.50;;;11.20;99.90;11.20;99886.00;;;;4903291;28;92677;-74
2023/01/05 02:20:37;;;;;;;2.47;1.03;;;11.30;99.90;11.20;99885.00;;;;4888578;28;110454;-71
2023/01/05 02:23:21;;;;;;;2.20;0.83;;;11.20;99.90;11.10;99886.00;;;;4904572;28;92904;-70
2023/01/05 02:26:20;;;;;;;4.90;0.97;;;11.20;99.90;11.00;99874.00;;;;4893409;28;93036;-72
2023/01/05 02:29:34;;;;;;;4.90;0.97;;;11.10;99.90;10.80;99871.00;;;;4904083;28;93627;-69
2023/01/05 02:32:22;;;;;;;1.73;0.53;;;11.00;99.90;10.80;99877.00;;;;4890581;28;92794;-70
2023/01/05 02:35:35;;;;;;;1.20;0.70;;;10.90;99.90;10.70;99859.00;;;;4892987;28;92815;-70
2023/01/05 02:38:18;;;;;;;7.43;1.13;;;10.90;99.90;10.80;99875.00;;;;4885391;28;93080;-70
2023/01/05 02:40:48;;;;;;;3.50;0.70;;;10.90;99.90;10.90;99888.00;;;;4891800;28;92949;-70
2023/01/05 02:43:20;;;;;;;0.87;0.57;;;10.90;99.90;11.00;99875.00;;;;4903334;28;115722;-70
2023/01/05 02:45:47;;;;;;;1.50;0.73;;;11.00;99.90;11.00;99876.00;;;;4892481;28;93163;-69
2023/01/05 02:48:13;;;;;;;1.20;0.80;;;11.10;99.90;11.00;99887.00;;;;4905621;28;92196;-68
2023/01/05 02:50:56;;;;;;;1.50;1.10;;;11.00;99.90;10.90;99867.00;;;;4906442;28;95813;-67
2023/01/05 02:53:47;;;;;;;3.43;1.00;;;11.00;99.90;10.80;99889.00;;;;4887435;28;92987;-67
2023/01/05 02:56:19;;;;;;;0.93;0.73;;;11.00;99.90;10.80;99893.00;;;;4863084;28;94550;-66
2023/01/05 02:59:13;;;;;;;2.23;0.60;;;10.90;99.90;10.70;99898.00;;;;4908612;28;102725;-67
2023/01/05 03:01:47;;;;;;;3.43;0.93;;;10.80;99.90;10.60;99889.00;;;;4891776;28;93406;-67
2023/01/05 03:04:18;;;;;;;3.00;0.60;;;10.70;99.90;10.40;99903.00;;;;4890811;28;93804;-68
2023/01/05 03:06:56;;;;;;;1.73;0.63;;;10.60;99.90;10.20;99928.00;;;;4906558;28;92999;-65
2023/01/05 03:09:26;;;;;;;1.77;1.03;;;10.40;99.90;10.10;99938.00;;;;4894522;28;93135;-67
2023/01/05 03:15:20;;;;;;;5.10;0.83;;;10.00;99.90;9.70;99952.00;;;;4896192;28;92113;-67
2023/01/05 03:17:51;;;;;;;1.07;0.80;;;9.90;99.90;9.60;99946.00;;;;4911645;28;100470;-66
2023/01/05 03:20:23;;;;;;;0.80;0.50;;;9.80;99.90;9.50;99952.00;;;;4883223;28;93080;-66
2023/01/05 03:37:38;;;;;;;1.13;0.80;;;9.40;99.90;9.30;99935.00;;;;4905858;28;92997;-66
2023/01/05 03:40:10;;;;;;;5.80;1.10;;;9.30;99.90;9.20;99937.00;;;;4890355;28;114751;-65
2023/01/05 03:42:37;;;;;;;2.57;0.90;;;9.30;99.90;9.20;99939.00;;;;4867665;28;99132;-65
2023/01/05 03:45:04;;;;;;;3.07;1.20;;;9.30;99.90;9.20;99929.00;;;;4904451;28;107957;-66
2023/01/05 03:47:29;;;;;;;3.40;1.00;;;9.30;99.90;9.20;99929.00;;;;4906046;28;112940;-65
2023/01/05 03:49:55;;;;;;;2.30;0.67;;;9.30;99.90;9.20;99944.00;;;;4905415;28;122637;-66
2023/01/05 03:52:21;;;;;;;5.40;0.90;;;9.30;99.90;9.20;99959.00;;;;4907762;28;92947;-67
2023/01/05 03:54:46;;;;;;;1.17;0.63;;;9.20;99.90;9.20;99946.00;;;;4907456;28;108583;-68
2023/01/05 03:57:12;;;;;;;1.40;0.97;;;9.30;99.90;9.20;99959.00;;;;4904894;28;122980;-66
2023/01/05 03:59:37;;;;;;;1.13;0.90;;;9.20;99.90;9.20;99947.00;;;;4907293;28;122378;-65
2023/01/05 04:02:03;;;;;;;4.03;1.17;;;9.30;99.90;9.20;99961.00;;;;4905462;28;110228;-65
2023/01/05 04:04:29;;;;;;;1.70;0.97;;;9.30;99.90;9.20;99960.00;;;;4906918;28;93543;-65
2023/01/05 04:06:54;;;;;;;2.90;0.87;;;9.20;99.90;9.10;99965.00;;;;4906065;28;122978;-65
2023/01/05 04:09:20;;;;;;;3.60;1.00;;;9.20;99.90;9.10;99967.00;;;;4903247;28;120976;-66
2023/01/05 04:11:46;;;;;;;3.70;1.23;;;9.20;99.90;9.20;99969.00;;;;4909909;28;111726;-65
2023/01/05 04:14:11;;;;;;;1.60;1.13;;;9.20;99.90;9.20;99955.00;;;;4904762;28;108590;-66
2023/01/05 04:16:37;;;;;;;5.77;1.30;;;9.30;99.90;9.20;99955.00;;;;4911259;28;123377;-65
2023/01/05 04:19:03;;;;;;;1.40;0.70;;;9.30;99.90;9.10;99955.00;;;;4905403;28;122714;-65
2023/01/05 04:21:28;;;;;;;4.40;1.47;;;9.20;99.90;9.10;99951.00;;;;4907037;28;110141;-65
2023/01/05 04:23:54;;;;;;;2.40;0.60;;;9.20;99.90;9.10;99958.00;;;;4910248;28;108618;-65
2023/01/05 04:26:19;;;;;;;6.33;1.17;;;9.20;99.90;9.10;99959.00;;;;4906065;28;123174;-65
2023/01/05 04:28:45;;;;;;;3.77;1.00;;;9.20;99.90;9.10;99958.00;;;;4906591;28;120682;-66
2023/01/05 04:31:11;;;;;;;0.97;0.90;;;9.20;99.90;9.10;99955.00;;;;4903697;28;110387;-66
2023/01/05 04:33:38;;;;;;;1.87;1.20;;;9.20;99.90;9.10;99945.00;;;;4908723;28;92962;-66
2023/01/05 04:36:06;;;;;;;1.23;0.90;;;9.20;99.90;9.10;99954.00;;;;4904946;28;93961;-66
2023/01/05 04:38:31;;;;;;;3.13;1.23;;;9.20;99.90;9.20;99967.00;;;;4905510;28;93701;-65
2023/01/05 04:40:57;;;;;;;1.43;0.90;;;9.20;99.90;9.20;99955.00;;;;4904259;28;106196;-65
2023/01/05 04:43:23;;;;;;;4.43;1.20;;;9.20;99.90;9.20;99952.00;;;;4905312;28;108769;-65
2023/01/05 04:45:49;;;;;;;2.20;1.40;;;9.20;99.90;9.20;99955.00;;;;4905220;28;121907;-65
2023/01/05 04:48:15;;;;;;;6.23;0.97;;;9.20;99.90;9.20;99958.00;;;;4905588;28;111867;-65
2023/01/05 04:50:41;;;;;;;1.47;0.70;;;9.30;99.90;9.20;99962.00;;;;4907992;28;112405;-65
2023/01/05 04:53:07;;;;;;;1.97;1.23;;;9.30;99.90;9.20;99954.00;;;;4906773;28;92696;-65
2023/01/05 04:55:33;;;;;;;1.63;1.07;;;9.30;99.90;9.30;99958.00;;;;4908483;28;93302;-65
2023/01/05 04:57:59;;;;;;;2.07;1.13;;;9.30;99.90;9.20;99949.00;;;;4904153;28;121013;-65
2023/01/05 05:00:24;;;;;;;4.93;1.03;;;9.30;99.90;9.30;99959.00;;;;4906885;28;110903;-66
2023/01/05 05:02:50;;;;;;;0.70;0.70;;;9.30;99.90;9.30;99957.00;;;;4901788;28;109141;-66
2023/01/05 05:05:16;;;;;;;1.73;1.10;;;9.30;99.90;9.30;99964.00;;;;4910079;28;110033;-66
2023/01/05 05:07:42;;;;;;;2.30;1.00;;;9.40;99.90;9.30;99956.00;;;;4903739;28;106606;-66
2023/01/05 05:10:08;;;;;;;4.67;1.33;;;9.40;99.90;9.30;99954.00;;;;4905979;28;111019;-65
2023/01/05 05:12:34;;;;;;;2.47;1.13;;;9.40;99.90;9.40;99954.00;;;;4906515;28;92630;-65
2023/01/05 05:14:59;;;;;;;2.13;0.93;;;9.40;99.90;9.40;99961.00;;;;4906915;28;121845;-67
2023/01/05 05:17:25;;;;;;;4.13;1.70;;;9.40;99.90;9.40;99961.00;;;;4907397;28;121666;-67
2023/01/05 05:19:51;;;;;;;3.03;1.10;;;9.50;99.90;9.40;99949.00;;;;4909166;28;108813;-66
2023/01/05 05:22:16;;;;;;;3.23;1.30;;;9.50;99.90;9.40;99968.00;;;;4907288;28;108740;-66
2023/01/05 05:24:42;;;;;;;1.83;0.90;;;9.50;99.90;9.50;99975.00;;;;4907429;28;122624;-66
2023/01/05 05:27:07;;;;;;;3.33;0.80;;;9.50;99.90;9.50;99974.00;;;;4906049;28;122858;-65
2023/01/05 05:29:33;;;;;;;2.10;0.87;;;9.50;99.90;9.50;99971.00;;;;4904070;28;109781;-64
2023/01/05 05:31:59;;;;;;;3.30;1.20;;;9.60;99.90;9.50;99983.00;;;;4904739;28;109242;-67
2023/01/05 05:34:24;;;;;;;1.97;1.40;;;9.50;99.90;9.50;99979.00;;;;4901593;28;121777;-64
2023/01/05 05:36:50;;;;;;;1.53;1.00;;;9.60;99.90;9.50;99986.00;;;;4905415;28;122572;-65
2023/01/05 05:39:16;;;;;;;4.80;1.17;;;9.60;99.90;9.50;99979.00;;;;4904240;28;110365;-65
2023/01/05 05:41:42;;;;;;;3.70;1.27;;;9.60;99.90;9.50;99979.00;;;;4907127;28;108321;-66
2023/01/05 05:44:07;;;;;;;3.77;1.00;;;9.60;99.90;9.50;99979.00;;;;4903696;28;119747;-65
2023/01/05 05:46:33;;;;;;;1.47;0.93;;;9.60;99.90;9.50;99984.00;;;;4908470;28;121675;-64
2023/01/05 05:48:59;;;;;;;0.70;0.53;;;9.60;99.90;9.50;99998.00;;;;4904825;28;92977;-65
2023/01/05 05:51:25;;;;;;;3.30;1.00;;;9.60;99.90;9.50;99993.00;;;;4905131;28;93738;-65
2023/01/05 05:53:52;;;;;;;9.60;1.70;;;9.50;99.90;9.40;99994.00;;;;4908075;28;93367;-66
2023/01/05 05:56:18;;;;;;;2.83;1.20;;;9.50;99.90;9.40;99992.00;;;;4905673;28;92951;-65
2023/01/05 05:58:44;;;;;;;7.87;1.20;;;9.50;99.90;9.40;99982.00;;;;4901262;28;95171;-65
2023/01/05 06:01:10;;;;;;;3.00;0.70;;;10.00;99.90;9.30;99976.00;;;;4902122;28;92744;-66
2023/01/05 06:03:35;;;;;;;1.30;0.60;;;9.40;99.90;9.40;99996.00;;;;4903033;28;122161;-65
2023/01/05 06:06:01;;;;;;;3.50;0.70;;;9.40;99.90;9.40;99999.00;;;;4908248;28;123849;-65
2023/01/05 06:08:28;;;;;;;1.23;0.87;;;9.40;99.90;9.40;100000.00;;;;4905869;28;91920;-65
2023/01/05 06:10:55;;;;;;;1.07;0.80;;;9.40;99.90;9.40;99999.00;;;;4910420;28;93061;-65
2023/01/05 06:13:21;;;;;;;3.23;1.23;;;9.40;99.90;9.30;99992.00;;;;4904718;28;93708;-64
2023/01/05 06:15:47;;;;;;;0.97;0.77;;;9.50;99.90;9.30;99998.00;;;;4908798;28;100588;-65
2023/01/05 06:18:13;;;;;;;4.30;0.57;;;9.40;99.90;9.30;99992.00;;;;4907499;28;99627;-66
2023/01/05 06:20:39;;;;;;;0.97;0.87;;;9.50;99.90;9.40;100005.00;;;;4906810;28;108319;-65
2023/01/05 06:23:05;;;;;;;0.73;0.73;;;9.50;99.90;9.40;100005.00;;;;4905636;28;93939;-66
2023/01/05 06:25:31;;;;;;;4.50;1.20;;;9.50;99.90;9.30;100008.00;;;;4905575;28;117361;-66
2023/01/05 06:27:58;;;;;;;3.60;1.37;;;9.50;99.90;9.30;100014.00;;;;4904616;28;92931;-64
2023/01/05 06:30:25;;;;;;;6.03;1.47;;;9.50;99.90;9.30;100016.00;;;;4900904;28;98725;-65
2023/01/05 06:32:51;;;;;;;2.40;0.90;;;9.40;99.90;9.20;100008.00;;;;4896334;28;101364;-65
2023/01/05 06:35:17;;;;;;;3.10;1.00;;;9.40;99.90;9.20;100011.00;;;;4903833;28;122131;-65
2023/01/05 06:37:42;;;;;;;2.97;1.00;;;9.30;99.90;9.20;100018.00;;;;4886309;28;93311;-64
2023/01/05 06:40:10;;;;;;;5.80;1.40;;;9.30;99.90;9.20;100024.00;;;;4903431;28;108390;-65
2023/01/05 06:42:37;;;;;;;2.53;0.97;;;9.30;99.90;9.10;100027.00;;;;4898990;28;93097;-64
2023/01/05 06:45:04;;;;;;;2.90;1.20;;;9.20;99.90;9.10;100030.00;;;;4899199;28;93267;-64
2023/01/05 06:47:29;;;;;;;3.93;1.20;;;9.20;99.90;9.10;100024.00;;;;4900125;28;98637;-64
2023/01/05 06:49:55;;;;;;;2.67;1.30;;;9.20;99.90;9.10;100029.00;;;;4903165;28;108881;-64
2023/01/05 06:52:21;;;;;;;4.60;1.17;;;9.20;99.90;9.10;100027.00;;;;4901139;28;105281;-64
2023/01/05 06:54:46;;;;;;;1.93;1.27;;;9.20;99.90;9.10;100028.00;;;;4902276;28;122808;-64
2023/01/05 06:57:12;;;;;;;1.13;0.70;;;9.20;99.90;9.10;100031.00;;;;4899405;28;108572;-65
2023/01/05 06:59:39;;;;;;;1.67;1.20;;;9.20;99.90;9.10;100029.00;;;;4903719;28;96422;-64
2023/01/05 07:02:08;;;;;;;2.73;1.10;;;9.20;99.90;9.10;100030.00;;;;4903248;28;94455;-65
2023/01/05 07:04:34;;;;;;;6.43;1.73;;;9.10;99.90;9.10;100044.00;;;;4903419;28;113636;-64
2023/01/05 07:07:00;;;;;;;3.67;1.27;;;9.20;99.90;9.10;100030.00;;;;4902231;28;111216;-65
2023/01/05 07:09:25;;;;;;;3.60;1.33;;;9.20;99.90;9.10;100055.00;;;;4897672;28;106506;-64
2023/01/05 07:11:51;;;;;;;5.93;0.93;;;9.20;99.90;9.10;100049.00;;;;4899745;28;122879;-64
2023/01/05 07:14:16;;;;;;;6.33;1.33;;;9.20;99.90;9.10;100048.00;;;;4896931;28;123314;-64
2023/01/05 07:16:42;;;;;;;4.43;1.30;;;9.20;99.90;9.10;100053.00;;;;4907114;28;101879;-64
2023/01/05 07:19:09;;;;;;;3.20;1.47;;;9.20;99.90;9.10;100045.00;;;;4899627;28;108355;-64
2023/01/05 07:21:35;;;;;;;1.50;1.10;;;9.20;99.90;9.10;100051.00;;;;4897585;28;121239;-64
2023/01/05 07:24:01;;;;;;;3.73;1.77;;;9.30;99.90;9.20;100064.00;;;;4882013;28;121606;-66
2023/01/05 07:26:26;;;;;;;6.50;1.70;;;9.20;99.90;9.20;100056.00;;;;4902451;28;109091;-64
2023/01/05 07:28:52;;;;;;;1.87;1.27;;;9.30;99.90;9.20;100062.00;;;;4904152;28;109310;-66
2023/01/05 07:31:18;;;;;;;3.40;1.80;;;9.30;99.90;9.30;100078.00;;;;4903146;28;94084;-65
2023/01/05 07:33:43;;;;;;;1.43;1.10;;;9.40;99.90;9.40;100073.00;;;;4899331;28;123592;-65
2023/01/05 07:36:09;;;;;;;6.93;1.60;;;9.50;99.90;9.50;100084.00;;;;4896339;28;110264;-65
2023/01/05 07:38:34;;;;;;;3.13;1.40;;;9.50;99.90;9.50;100086.00;;;;4898195;28;93229;-65
2023/01/05 07:41:01;;;;;;;5.87;1.40;;;9.60;99.90;9.60;100094.00;;;;4887825;28;123053;-66
2023/01/05 07:43:27;;;;;;;2.90;1.60;;;9.70;99.90;9.70;100090.00;;;;4902765;28;114076;-65
2023/01/05 07:45:58;;;;;;;0.60;0.60;;;9.70;99.90;9.70;100096.00;;;;4902227;28;93286;-64
2023/01/05 07:48:25;;;;;;;3.67;1.57;;;9.70;99.90;9.70;100096.00;;;;4902694;28;92867;-64
2023/01/05 07:50:51;;;;;;;1.17;0.73;;;9.70;99.90;9.60;100106.00;;;;4900310;28;121743;-65
2023/01/05 07:53:17;;;;;;;4.80;1.07;;;9.70;99.90;9.50;100095.00;;;;4903443;28;102630;-65
2023/01/05 07:55:42;;;;;;;3.23;1.43;;;9.70;99.90;9.50;100105.00;;;;4908296;28;109096;-65
2023/01/05 07:58:08;;;;;;;5.73;1.80;;;9.60;99.90;9.50;100101.00;;;;4904222;28;106993;-65
2023/01/05 08:00:34;;;;;;;0.90;0.90;;;9.60;99.90;9.40;100107.00;;;;4904970;28;122001;-64
2023/01/05 08:02:59;;;;;;;3.13;1.40;;;9.60;99.90;9.40;100114.00;;;;4904946;28;122061;-64
2023/01/05 08:05:29;;;;;;;2.43;1.40;;;9.50;99.90;9.30;100116.00;;;;4905420;28;93018;-65
2023/01/05 08:07:54;;;;;;;1.27;0.97;;;9.50;99.90;9.40;100116.00;;;;4908412;28;93040;-65
2023/01/05 08:10:29;;;;;;;2.30;1.30;;;9.50;99.90;9.40;100109.00;;;;4908047;28;115476;-64
2023/01/05 08:15:49;;;;;;;3.67;1.57;;;9.50;99.90;9.50;100131.00;;;;4907087;28;92896;-64
2023/01/05 08:18:15;;;;;;;1.23;1.13;;;9.60;99.90;9.50;100142.00;;;;4910066;28;94073;-65
2023/01/05 08:20:41;;;;;;;4.73;1.40;;;9.60;99.90;9.50;100142.00;;;;4904538;28;123905;-65
2023/01/05 08:23:06;;;;;;;5.73;1.87;;;9.60;99.90;9.40;100134.00;;;;4905193;28;122162;-65
2023/01/05 08:25:32;;;;;;;1.57;0.90;;;9.50;99.90;9.30;100149.00;;;;4905001;28;104895;-64
2023/01/05 08:27:58;;;;;;;3.97;1.40;;;9.50;99.90;9.30;100140.00;;;;4903144;28;108756;-66
2023/01/05 08:30:25;;;;;;;1.23;0.93;;;9.40;99.90;9.30;100149.00;;;;4900826;28;94330;-65
2023/01/05 08:32:50;;;;;;;1.47;1.03;;;9.40;99.90;9.20;100164.00;;;;4900264;28;94435;-64
2023/01/05 08:35:16;;;;;;;3.03;1.23;;;9.80;99.90;9.20;100159.00;;;;4904447;28;110738;-66
2023/01/05 08:37:45;;;;;;;3.33;0.93;;;9.30;99.90;9.20;100151.00;;;;4903567;28;101103;-64
2023/01/05 08:40:11;;;;;;;3.10;1.63;;;9.30;99.90;9.30;100157.00;;;;4904437;28;123223;-66
2023/01/05 08:42:37;;;;;;;3.00;1.70;;;9.40;99.90;9.30;100165.00;;;;4889090;28;113694;-65
2023/01/05 08:45:03;;;;;;;7.77;1.67;;;9.40;99.90;9.30;100167.00;;;;4905296;28;92871;-65
2023/01/05 08:47:29;;;;;;;1.37;0.63;;;9.40;99.90;9.30;100175.00;;;;4904702;28;92976;-64
2023/01/05 08:49:54;;;;;;;1.03;0.87;;;9.40;99.90;9.30;100162.00;;;;4904534;28;121087;-65
2023/01/05 08:52:22;;;;;;;5.70;1.47;;;9.40;99.90;9.20;100182.00;;;;4903771;28;120300;-64
2023/01/05 08:54:48;;;;;;;2.03;0.90;;;9.30;99.90;9.20;100170.00;;;;4904546;28;94110;-64
2023/01/05 08:57:13;;;;;;;2.73;1.47;;;9.30;99.90;9.20;100180.00;;;;4903842;28;96824;-65
2023/01/05 08:59:39;;;;;;;1.57;1.33;;;9.30;99.90;9.20;100180.00;;;;4904707;28;92954;-65
2023/01/05 09:02:09;;;;;;;3.27;1.30;;;9.30;99.90;9.20;100186.00;;;;4904863;28;93183;-65
2023/01/05 09:04:35;;;;;;;2.93;1.80;;;9.30;99.90;9.20;100193.00;;;;4901715;28;102170;-64
2023/01/05 09:07:00;;;;;;;2.53;1.30;;;9.20;99.90;9.20;100207.00;;;;4902232;28;108153;-65
2023/01/05 09:09:26;;;;;;;3.07;2.00;;;9.30;99.90;9.10;100205.00;;;;4902534;28;113830;-65
2023/01/05 09:11:52;;;;;;;4.37;1.40;;;9.30;99.90;9.10;100193.00;;;;4903200;28;93718;-65
2023/01/05 09:14:18;;;;;;;2.37;1.53;;;9.30;99.90;9.10;100206.00;;;;4905158;28;110141;-66
2023/01/05 09:16:44;;;;;;;5.93;1.30;;;9.20;99.90;9.10;100204.00;;;;4901798;28;103021;-64
2023/01/05 09:19:12;;;;;;;4.37;2.23;;;9.20;99.90;9.10;100220.00;;;;4902033;28;119952;-69
2023/01/05 09:21:38;;;;;;;5.07;2.67;;;9.20;99.90;9.00;100209.00;;;;4887870;28;113002;-66
2023/01/05 09:24:06;;;;;;;3.23;1.57;;;9.10;99.90;9.00;100210.00;;;;4901054;28;92105;-66
2023/01/05 09:26:32;;;;;;;7.30;1.87;;;9.10;99.90;8.90;100219.00;;;;4901039;28;93093;-65
2023/01/05 09:28:58;;;;;;;2.30;1.40;;;9.10;99.90;8.90;100220.00;;;;4883083;28;107924;-66
2023/01/05 09:31:24;;;;;;;2.37;1.10;;;9.00;99.90;8.90;100228.00;;;;4886026;28;93869;-66
2023/01/05 09:33:50;;;;;;;2.03;1.53;;;9.00;99.90;8.90;100229.00;;;;4899605;28;109618;-64
2023/01/05 09:36:17;;;;;;;5.00;1.80;;;9.00;99.90;8.90;100225.00;;;;4902441;28;108599;-66
2023/01/05 09:38:49;;;;;;;3.80;1.73;;;9.00;99.90;8.90;100211.00;;;;4901320;28;92950;-65
2023/01/05 09:41:35;;;;;;;5.97;1.77;;;9.00;99.90;8.90;100224.00;;;;4888247;28;93238;-65
2023/01/05 09:44:29;;;;;;;2.27;1.13;;;9.10;99.90;8.90;100235.00;;;;4875457;28;93089;-65
2023/01/05 09:47:02;;;;;;;1.70;1.10;;;9.00;99.90;9.00;100237.00;;;;4864656;28;92981;-65
2023/01/05 09:49:30;;;;;;;3.70;1.63;;;9.10;99.90;9.00;100229.00;;;;4864734;28;92946;-65
2023/01/05 09:52:08;;;;;;;5.10;1.93;;;9.00;99.90;9.00;100234.00;;;;4862928;28;93153;-65
2023/01/05 09:54:36;;;;;;;3.23;1.40;;;9.20;99.90;9.00;100236.00;;;;4862200;28;92910;-65
2023/01/05 09:57:05;;;;;;;1.57;1.10;;;9.10;99.90;9.10;100236.00;;;;4859785;28;94196;-64
2023/01/05 09:59:35;;;;;;;2.93;1.63;;;9.10;99.90;9.10;100237.00;;;;4866228;28;93641;-65
2023/01/05 10:02:37;;;;;;;2.57;1.63;;;9.20;99.90;9.20;100248.00;;;;4865284;28;101870;-66
2023/01/05 10:05:05;;;;;;;8.57;1.77;;;9.20;99.90;9.20;100255.00;;;;4863387;28;93031;-65
2023/01/05 10:07:49;;;;;;;3.00;1.87;;;9.40;99.90;9.30;100253.00;;;;4874044;28;93118;-66
2023/01/05 10:13:49;;;;;;;3.53;1.27;;;9.40;99.90;9.40;100257.00;;;;4859694;28;92902;-66
2023/01/05 10:16:16;;;;;;;2.13;1.37;;;9.50;99.90;9.40;100258.00;;;;4865987;28;103246;-66
2023/01/05 10:18:43;;;;;;;6.13;1.60;;;9.50;99.90;9.40;100248.00;;;;4861949;28;100286;-65
2023/01/05 10:21:50;;;;;;;2.97;1.40;;;9.50;99.90;9.40;100232.00;;;;4861608;28;122695;-65
2023/01/05 10:24:34;;;;;;;2.00;1.27;;;9.50;99.90;9.40;100249.00;;;;4864265;28;94070;-65
2023/01/05 10:27:30;;;;;;;3.93;1.00;;;9.50;99.90;9.40;100247.00;;;;4864324;28;92937;-64
2023/01/05 10:30:11;;;;;;;2.23;1.63;;;9.50;99.90;9.40;100250.00;;;;4860277;28;100646;-67
2023/01/05 10:32:59;;;;;;;1.77;1.30;;;9.50;99.90;9.30;100238.00;;;;4861235;28;115991;-65
2023/01/05 10:35:51;;;;;;;7.10;1.57;;;9.50;99.90;9.30;100237.00;;;;4865356;28;93623;-65
2023/01/05 10:38:56;;;;;;;1.40;1.23;;;9.50;99.90;9.30;100244.00;;;;4866361;28;92840;-66
2023/01/05 10:41:39;;;;;;;2.37;1.10;;;9.40;99.90;9.30;100239.00;;;;4862988;28;93170;-65
2023/01/05 10:44:36;;;;;;;3.77;1.10;;;9.40;99.90;9.30;100245.00;;;;4877966;28;92516;-65
2023/01/05 10:47:02;;;;;;;2.73;1.17;;;9.40;99.90;9.30;100229.00;;;;4901041;28;93071;-66
2023/01/05 10:49:30;;;;;;;5.43;1.87;;;9.30;99.90;9.20;100238.00;;;;4903305;28;113644;-67
2023/01/05 10:51:59;;;;;;;2.63;1.50;;;9.30;99.90;9.20;100250.00;;;;4899688;28;101488;-67
2023/01/05 10:54:41;;;;;;;1.00;0.90;;;9.30;99.90;9.10;100255.00;;;;4904507;28;115063;-65
2023/01/05 10:57:27;;;;;;;2.53;1.47;;;9.20;99.90;9.10;100267.00;;;;4899241;28;92852;-65
2023/01/05 11:00:03;;;;;;;2.73;1.17;;;9.20;99.90;9.10;100237.00;;;;4904114;28;92814;-67
2023/01/05 11:02:34;;;;;;;2.40;1.33;;;9.20;99.90;9.00;100260.00;;;;4535030;28;92884;-65
2023/01/05 11:05:16;;;;;;;1.77;1.67;;;9.20;99.90;9.00;100260.00;;;;4903804;28;92953;-67
2023/01/05 11:07:49;;;;;;;5.23;1.30;;;9.10;99.90;9.00;100273.00;;;;4900854;28;99849;-67
2023/01/05 11:10:30;;;;;;;5.07;1.60;;;9.10;99.90;8.90;100269.00;;;;4877984;28;101160;-64
2023/01/05 11:13:06;;;;;;;4.33;1.63;;;9.10;99.90;8.90;100252.00;;;;4904960;28;94158;-66
2023/01/05 11:15:42;;;;;;;2.27;1.77;;;9.00;99.90;8.90;100265.00;;;;4900703;28;93921;-66
2023/01/05 11:18:24;;;;;;;3.63;1.43;;;9.00;99.90;8.90;100265.00;;;;4885284;28;113950;-67
2023/01/05 11:21:24;;;;;;;3.30;1.00;;;9.00;99.90;8.90;100264.00;;;;4879627;28;93185;-66
2023/01/05 11:23:56;;;;;;;3.50;1.27;;;9.00;99.90;8.90;100274.00;;;;4886365;28;93568;-66
2023/01/05 11:26:33;;;;;;;4.60;1.37;;;8.60;99.90;8.90;100279.00;;;;4902829;28;93063;-65
2023/01/05 11:29:08;;;;;;;4.43;1.20;;;9.00;99.90;8.90;100267.00;;;;4903126;28;93005;-65
2023/01/05 11:31:58;;;;;;;4.93;1.53;;;9.00;99.90;8.90;100272.00;;;;4906967;28;101103;-65
2023/01/05 11:34:37;;;;;;;2.93;1.60;;;9.00;99.90;8.90;100278.00;;;;4902160;28;92714;-66
2023/01/05 11:37:19;;;;;;;4.07;1.40;;;9.00;99.90;9.00;100286.00;;;;4889348;28;92633;-66
2023/01/05 11:40:03;;;;;;;0.70;0.70;;;9.00;99.90;9.00;100281.00;;;;4890845;28;109006;-67
2023/01/05 11:42:34;;;;;;;1.90;0.97;;;9.10;99.90;9.10;100285.00;;;;4881626;28;92800;-66
2023/01/05 11:45:27;;;;;;;2.63;0.83;;;9.10;99.90;9.50;100294.00;;;;4882648;28;93921;-66
2023/01/05 11:48:00;;;;;;;3.17;1.13;;;9.40;99.90;9.60;100309.00;;;;4878203;28;93289;-67